sensor_id;sensor_type;location;lat;lon;timestamp;P1;durP1;ratioP1;P2;durP2;ratioP2
58306;SDS011;44116;50.884;4.768;2023-08-20T13:44:08;6.1;;;1.6;;
58306;SDS011;44116;50.884;4.768;2023-08-20T13:46:08;4.7;;;1.5;;
58306;SDS011;44116;50.884;4.768;2023-08-20T13:50:09;6.8;;;1.6;;
58306;SDS011;44116;50.884;4.768;2023-08-20T13:52:10;5.2;;;1.7;;
58306;SDS011;44116;50.884;4.768;2023-08-20T13:56:10;6.3;;;1.6;;
58306;SDS011;44116;50.884;4.768;2023-08-20T13:58:10;6.1;;;1.8;;
58306;SDS011;44116;50.884;4.768;2023-08-20T14:00:11;7.4;;;1.9;;
58306;SDS011;44116;50.884;4.768;2023-08-20T14:02:11;4.3;;;1.4;;
58306;SDS011;44116;50.884;4.768;2023-08-20T14:04:11;5.6;;;1.7;;
58306;SDS011;44116;50.884;4.768;2023-08-20T14:08:12;5.1;;;1.5;;
58306;SDS011;44116;50.884;4.768;2023-08-20T14:10:12;4.7;;;1.4;;
58306;SDS011;44116;50.884;4.768;2023-08-20T14:12:12;4.9;;;1.7;;
58306;SDS011;44116;50.884;4.768;2023-08-20T14:14:12;4.6;;;1.6;;
58306;SDS011;44116;50.884;4.768;2023-08-20T14:16:13;5.6;;;1.7;;
58306;SDS011;44116;50.884;4.768;2023-08-20T14:18:13;5.6;;;1.6;;
58306;SDS011;44116;50.884;4.768;2023-08-20T14:20:13;5.8;;;1.9;;
58306;SDS011;44116;50.884;4.768;2023-08-20T14:22:14;6.1;;;1.7;;
58306;SDS011;44116;50.884;4.768;2023-08-20T14:24:14;4.0;;;1.6;;
58306;SDS011;44116;50.884;4.768;2023-08-20T14:30:15;4.2;;;1.3;;
58306;SDS011;44116;50.884;4.768;2023-08-20T14:32:15;7.4;;;1.5;;
58306;SDS011;44116;50.884;4.768;2023-08-20T14:34:16;6.5;;;1.7;;
58306;SDS011;44116;50.884;4.768;2023-08-20T14:38:16;4.3;;;1.4;;
58306;SDS011;44116;50.884;4.768;2023-08-20T14:40:16;4.8;;;1.7;;
58306;SDS011;44116;50.884;4.768;2023-08-20T14:42:17;6.6;;;1.8;;
58306;SDS011;44116;50.884;4.768;2023-08-20T14:44:17;4.0;;;1.6;;
58306;SDS011;44116;50.884;4.768;2023-08-20T14:46:17;4.9;;;1.8;;
58306;SDS011;44116;50.884;4.768;2023-08-20T14:52:18;4.2;;;1.6;;
58306;SDS011;44116;50.884;4.768;2023-08-20T14:54:18;5.3;;;1.8;;
58306;SDS011;44116;50.884;4.768;2023-08-20T14:56:18;7.6;;;2.1;;
58306;SDS011;44116;50.884;4.768;2023-08-20T14:58:19;5.8;;;1.7;;
58306;SDS011;44116;50.884;4.768;2023-08-20T15:00:19;6.3;;;1.9;;
58306;SDS011;44116;50.884;4.768;2023-08-20T15:02:19;6.2;;;1.7;;
58306;SDS011;44116;50.884;4.768;2023-08-20T15:04:19;5.3;;;1.4;;
58306;SDS011;44116;50.884;4.768;2023-08-20T15:06:20;6.8;;;1.9;;
58306;SDS011;44116;50.884;4.768;2023-08-20T15:08:20;5.7;;;1.6;;
58306;SDS011;44116;50.884;4.768;2023-08-20T15:10:20;4.6;;;1.5;;
58306;SDS011;44116;50.884;4.768;2023-08-20T15:14:21;5.9;;;1.7;;
58306;SDS011;44116;50.884;4.768;2023-08-20T15:16:21;6.8;;;1.5;;
58306;SDS011;44116;50.884;4.768;2023-08-20T15:18:22;6.4;;;1.6;;
58306;SDS011;44116;50.884;4.768;2023-08-20T15:20:21;5.2;;;1.8;;
58306;SDS011;44116;50.884;4.768;2023-08-20T15:22:21;7.1;;;1.7;;
58306;SDS011;44116;50.884;4.768;2023-08-20T15:24:22;5.6;;;1.5;;
58306;SDS011;44116;50.884;4.768;2023-08-20T15:26:22;7.8;;;1.6;;
58306;SDS011;44116;50.884;4.768;2023-08-20T15:28:23;4.7;;;1.5;;
58306;SDS011;44116;50.884;4.768;2023-08-20T15:30:22;5.8;;;1.7;;
58306;SDS011;44116;50.884;4.768;2023-08-20T15:32:23;6.2;;;1.6;;
58306;SDS011;44116;50.884;4.768;2023-08-20T15:36:23;3.9;;;1.5;;
58306;SDS011;44116;50.884;4.768;2023-08-20T15:38:23;6.5;;;1.8;;
58306;SDS011;44116;50.884;4.768;2023-08-20T15:40:23;5.0;;;1.7;;
58306;SDS011;44116;50.884;4.768;2023-08-20T15:44:24;4.5;;;1.6;;
58306;SDS011;44116;50.884;4.768;2023-08-20T15:46:24;4.0;;;1.7;;
58306;SDS011;44116;50.884;4.768;2023-08-20T15:50:25;3.9;;;1.4;;
58306;SDS011;44116;50.884;4.768;2023-08-20T15:52:25;6.2;;;1.6;;
58306;SDS011;44116;50.884;4.768;2023-08-20T15:54:25;6.1;;;1.8;;
58306;SDS011;44116;50.884;4.768;2023-08-20T15:56:25;5.9;;;1.9;;
58306;SDS011;44116;50.884;4.768;2023-08-20T15:58:25;5.7;;;1.8;;
58306;SDS011;44116;50.884;4.768;2023-08-20T16:02:26;6.2;;;1.6;;
58306;SDS011;44116;50.884;4.768;2023-08-20T16:04:26;4.1;;;1.4;;
58306;SDS011;44116;50.884;4.768;2023-08-20T16:06:26;5.5;;;1.7;;
58306;SDS011;44116;50.884;4.768;2023-08-20T16:08:26;6.8;;;2.0;;
58306;SDS011;44116;50.884;4.768;2023-08-20T16:10:26;5.9;;;1.7;;
58306;SDS011;44116;50.884;4.768;2023-08-20T16:14:27;6.8;;;1.8;;
58306;SDS011;44116;50.884;4.768;2023-08-20T16:16:27;5.6;;;1.7;;
58306;SDS011;44116;50.884;4.768;2023-08-20T16:18:27;4.9;;;1.8;;
58306;SDS011;44116;50.884;4.768;2023-08-20T16:22:28;6.9;;;1.9;;
58306;SDS011;44116;50.884;4.768;2023-08-20T16:24:28;4.9;;;1.7;;
58306;SDS011;44116;50.884;4.768;2023-08-20T16:28:28;5.6;;;1.6;;
58306;SDS011;44116;50.884;4.768;2023-08-20T16:30:29;6.9;;;1.8;;
58306;SDS011;44116;50.884;4.768;2023-08-20T16:34:30;5.7;;;1.9;;
58306;SDS011;44116;50.884;4.768;2023-08-20T16:36:30;5.9;;;1.6;;
58306;SDS011;44116;50.884;4.768;2023-08-20T16:40:30;7.6;;;1.8;;
58306;SDS011;44116;50.884;4.768;2023-08-20T16:44:30;6.4;;;1.9;;
58306;SDS011;44116;50.884;4.768;2023-08-20T16:46:30;5.7;;;2.1;;
58306;SDS011;44116;50.884;4.768;2023-08-20T16:48:30;6.8;;;1.9;;
58306;SDS011;44116;50.884;4.768;2023-08-20T16:52:31;4.5;;;1.7;;
58306;SDS011;44116;50.884;4.768;2023-08-20T16:54:31;5.9;;;1.9;;
58306;SDS011;44116;50.884;4.768;2023-08-20T16:56:31;5.9;;;1.5;;
58306;SDS011;44116;50.884;4.768;2023-08-20T16:58:31;7.2;;;1.9;;
58306;SDS011;44116;50.884;4.768;2023-08-20T17:06:32;5.9;;;1.6;;
58306;SDS011;44116;50.884;4.768;2023-08-20T17:08:32;6.0;;;2.0;;
58306;SDS011;44116;50.884;4.768;2023-08-20T17:10:32;6.1;;;1.6;;
58306;SDS011;44116;50.884;4.768;2023-08-20T17:14:33;3.7;;;1.5;;
58306;SDS011;44116;50.884;4.768;2023-08-20T17:16:33;6.8;;;1.7;;
58306;SDS011;44116;50.884;4.768;2023-08-20T17:18:33;3.4;;;1.6;;
58306;SDS011;44116;50.884;4.768;2023-08-20T17:20:33;4.7;;;1.8;;
58306;SDS011;44116;50.884;4.768;2023-08-20T17:22:33;4.4;;;1.6;;
58306;SDS011;44116;50.884;4.768;2023-08-20T17:24:33;4.7;;;1.7;;
58306;SDS011;44116;50.884;4.768;2023-08-20T17:26:34;5.9;;;1.5;;
58306;SDS011;44116;50.884;4.768;2023-08-20T17:28:34;4.9;;;1.7;;
58306;SDS011;44116;50.884;4.768;2023-08-20T17:30:34;5.3;;;1.8;;
58306;SDS011;44116;50.884;4.768;2023-08-20T17:32:34;5.5;;;1.7;;
58306;SDS011;44116;50.884;4.768;2023-08-20T17:34:34;6.1;;;1.6;;
58306;SDS011;44116;50.884;4.768;2023-08-20T17:38:35;5.0;;;1.4;;
58306;SDS011;44116;50.884;4.768;2023-08-20T17:40:35;6.4;;;1.8;;
58306;SDS011;44116;50.884;4.768;2023-08-20T17:42:36;4.3;;;1.6;;
58306;SDS011;44116;50.884;4.768;2023-08-20T17:44:35;3.8;;;1.3;;
58306;SDS011;44116;50.884;4.768;2023-08-20T17:46:41;7.2;;;1.7;;
58306;SDS011;44116;50.884;4.768;2023-08-20T17:48:36;6.4;;;1.8;;
58306;SDS011;44116;50.884;4.768;2023-08-20T17:50:36;3.7;;;1.3;;
58306;SDS011;44116;50.884;4.768;2023-08-20T17:54:36;6.1;;;1.6;;
58306;SDS011;44116;50.884;4.768;2023-08-20T17:58:36;5.1;;;1.7;;
58306;SDS011;44116;50.884;4.768;2023-08-20T18:00:37;4.6;;;1.5;;
58306;SDS011;44116;50.884;4.768;2023-08-20T18:02:37;6.8;;;1.7;;
58306;SDS011;44116;50.884;4.768;2023-08-20T18:04:37;4.8;;;1.3;;
58306;SDS011;44116;50.884;4.768;2023-08-20T18:06:37;4.6;;;1.6;;
58306;SDS011;44116;50.884;4.768;2023-08-20T18:08:37;5.6;;;1.8;;
58306;SDS011;44116;50.884;4.768;2023-08-20T18:10:38;5.2;;;1.5;;
58306;SDS011;44116;50.884;4.768;2023-08-20T18:12:38;6.7;;;1.8;;
58306;SDS011;44116;50.884;4.768;2023-08-20T18:14:38;6.1;;;1.5;;
58306;SDS011;44116;50.884;4.768;2023-08-20T18:16:38;6.7;;;1.9;;
58306;SDS011;44116;50.884;4.768;2023-08-20T18:18:38;5.3;;;1.6;;
58306;SDS011;44116;50.884;4.768;2023-08-20T18:20:38;7.2;;;1.7;;
58306;SDS011;44116;50.884;4.768;2023-08-20T18:22:38;6.3;;;1.6;;
58306;SDS011;44116;50.884;4.768;2023-08-20T18:28:39;5.4;;;1.8;;
58306;SDS011;44116;50.884;4.768;2023-08-20T18:30:39;6.1;;;1.6;;
58306;SDS011;44116;50.884;4.768;2023-08-20T18:32:39;7.1;;;1.8;;
58306;SDS011;44116;50.884;4.768;2023-08-20T18:34:39;5.5;;;1.6;;
58306;SDS011;44116;50.884;4.768;2023-08-20T18:38:40;6.3;;;1.8;;
58306;SDS011;44116;50.884;4.768;2023-08-20T18:40:39;7.9;;;1.9;;
58306;SDS011;44116;50.884;4.768;2023-08-20T18:42:39;6.3;;;1.7;;
58306;SDS011;44116;50.884;4.768;2023-08-20T18:44:40;7.3;;;2.1;;
58306;SDS011;44116;50.884;4.768;2023-08-20T18:46:40;7.0;;;1.9;;
58306;SDS011;44116;50.884;4.768;2023-08-20T18:52:40;8.2;;;2.0;;
58306;SDS011;44116;50.884;4.768;2023-08-20T18:54:40;6.5;;;1.8;;
58306;SDS011;44116;50.884;4.768;2023-08-20T18:56:40;4.5;;;1.7;;
58306;SDS011;44116;50.884;4.768;2023-08-20T18:58:41;7.0;;;1.9;;
58306;SDS011;44116;50.884;4.768;2023-08-20T19:00:41;8.6;;;2.0;;
58306;SDS011;44116;50.884;4.768;2023-08-20T19:02:41;5.7;;;1.9;;
58306;SDS011;44116;50.884;4.768;2023-08-20T19:10:41;6.0;;;1.8;;
58306;SDS011;44116;50.884;4.768;2023-08-20T19:12:41;10.8;;;2.2;;
58306;SDS011;44116;50.884;4.768;2023-08-20T19:14:41;5.9;;;1.9;;
58306;SDS011;44116;50.884;4.768;2023-08-20T19:16:41;5.8;;;1.7;;
58306;SDS011;44116;50.884;4.768;2023-08-20T19:18:41;8.4;;;2.1;;
58306;SDS011;44116;50.884;4.768;2023-08-20T19:20:44;8.1;;;1.9;;
58306;SDS011;44116;50.884;4.768;2023-08-20T19:22:42;8.7;;;2.1;;
58306;SDS011;44116;50.884;4.768;2023-08-20T19:24:42;10.7;;;1.8;;
58306;SDS011;44116;50.884;4.768;2023-08-20T19:26:42;6.5;;;1.9;;
58306;SDS011;44116;50.884;4.768;2023-08-20T19:28:42;7.4;;;1.8;;
58306;SDS011;44116;50.884;4.768;2023-08-20T19:34:42;6.9;;;1.6;;
58306;SDS011;44116;50.884;4.768;2023-08-20T19:36:42;7.0;;;1.8;;
58306;SDS011;44116;50.884;4.768;2023-08-20T19:38:42;9.0;;;1.9;;
58306;SDS011;44116;50.884;4.768;2023-08-20T19:40:45;7.7;;;1.7;;
58306;SDS011;44116;50.884;4.768;2023-08-20T19:44:42;8.0;;;1.8;;
58306;SDS011;44116;50.884;4.768;2023-08-20T19:48:43;5.1;;;1.9;;
58306;SDS011;44116;50.884;4.768;2023-08-20T19:50:43;6.7;;;1.8;;
58306;SDS011;44116;50.884;4.768;2023-08-20T19:54:43;8.9;;;1.9;;
58306;SDS011;44116;50.884;4.768;2023-08-20T19:58:43;9.8;;;2.0;;
58306;SDS011;44116;50.884;4.768;2023-08-20T20:02:45;7.5;;;1.8;;
58306;SDS011;44116;50.884;4.768;2023-08-20T20:08:43;7.4;;;2.0;;
58306;SDS011;44116;50.884;4.768;2023-08-20T20:10:43;6.9;;;1.9;;
58306;SDS011;44116;50.884;4.768;2023-08-20T20:12:43;7.8;;;2.1;;
58306;SDS011;44116;50.884;4.768;2023-08-20T20:14:43;7.9;;;2.2;;
58306;SDS011;44116;50.884;4.768;2023-08-20T20:16:43;5.7;;;1.9;;
58306;SDS011;44116;50.884;4.768;2023-08-20T20:18:44;7.2;;;2.0;;
58306;SDS011;44116;50.884;4.768;2023-08-20T20:20:44;9.2;;;2.3;;
58306;SDS011;44116;50.884;4.768;2023-08-20T20:22:44;7.1;;;1.7;;
58306;SDS011;44116;50.884;4.768;2023-08-20T20:24:46;8.1;;;1.9;;
58306;SDS011;44116;50.884;4.768;2023-08-20T20:26:44;6.0;;;1.6;;
58306;SDS011;44116;50.884;4.768;2023-08-20T20:28:44;7.4;;;2.0;;
58306;SDS011;44116;50.884;4.768;2023-08-20T20:30:44;8.5;;;2.1;;
58306;SDS011;44116;50.884;4.768;2023-08-20T20:32:44;6.9;;;2.0;;
58306;SDS011;44116;50.884;4.768;2023-08-20T20:34:44;7.3;;;2.1;;
58306;SDS011;44116;50.884;4.768;2023-08-20T20:40:44;6.3;;;1.8;;
58306;SDS011;44116;50.884;4.768;2023-08-20T20:42:44;7.1;;;1.7;;
58306;SDS011;44116;50.884;4.768;2023-08-20T20:44:44;8.1;;;1.9;;
58306;SDS011;44116;50.884;4.768;2023-08-20T20:46:44;6.3;;;1.8;;
58306;SDS011;44116;50.884;4.768;2023-08-20T20:48:44;8.1;;;2.4;;
58306;SDS011;44116;50.884;4.768;2023-08-20T20:50:45;7.1;;;1.9;;
58306;SDS011;44116;50.884;4.768;2023-08-20T20:52:44;6.6;;;2.0;;
58306;SDS011;44116;50.884;4.768;2023-08-20T20:54:44;6.5;;;2.2;;
58306;SDS011;44116;50.884;4.768;2023-08-20T20:56:44;8.1;;;1.9;;
58306;SDS011;44116;50.884;4.768;2023-08-20T20:58:44;7.1;;;2.1;;
58306;SDS011;44116;50.884;4.768;2023-08-20T21:00:44;8.0;;;2.5;;
58306;SDS011;44116;50.884;4.768;2023-08-20T21:04:44;6.3;;;2.0;;
58306;SDS011;44116;50.884;4.768;2023-08-20T21:06:44;8.2;;;2.1;;
58306;SDS011;44116;50.884;4.768;2023-08-20T21:08:45;8.0;;;2.0;;
58306;SDS011;44116;50.884;4.768;2023-08-20T21:10:45;8.7;;;2.1;;
58306;SDS011;44116;50.884;4.768;2023-08-20T21:12:45;9.0;;;2.2;;
58306;SDS011;44116;50.884;4.768;2023-08-20T21:14:45;8.3;;;2.1;;
58306;SDS011;44116;50.884;4.768;2023-08-20T21:16:45;8.5;;;2.2;;
58306;SDS011;44116;50.884;4.768;2023-08-20T21:18:45;6.8;;;2.3;;
58306;SDS011;44116;50.884;4.768;2023-08-20T21:22:45;7.9;;;2.2;;
58306;SDS011;44116;50.884;4.768;2023-08-20T21:26:45;9.3;;;2.3;;
58306;SDS011;44116;50.884;4.768;2023-08-20T21:28:45;8.0;;;2.4;;
58306;SDS011;44116;50.884;4.768;2023-08-20T21:30:45;8.6;;;2.5;;
58306;SDS011;44116;50.884;4.768;2023-08-20T21:32:45;7.9;;;2.4;;
58306;SDS011;44116;50.884;4.768;2023-08-20T21:34:45;6.9;;;2.2;;
58306;SDS011;44116;50.884;4.768;2023-08-20T21:36:45;9.2;;;2.4;;
58306;SDS011;44116;50.884;4.768;2023-08-20T21:38:45;8.3;;;2.2;;
58306;SDS011;44116;50.884;4.768;2023-08-20T21:40:45;7.1;;;2.3;;
58306;SDS011;44116;50.884;4.768;2023-08-20T21:42:47;10.6;;;2.7;;
58306;SDS011;44116;50.884;4.768;2023-08-20T21:44:45;9.2;;;2.6;;
58306;SDS011;44116;50.884;4.768;2023-08-20T21:46:45;9.5;;;2.4;;
58306;SDS011;44116;50.884;4.768;2023-08-20T21:48:45;10.3;;;2.5;;
58306;SDS011;44116;50.884;4.768;2023-08-20T21:50:45;7.2;;;2.4;;
58306;SDS011;44116;50.884;4.768;2023-08-20T21:52:45;9.0;;;2.5;;
58306;SDS011;44116;50.884;4.768;2023-08-20T21:54:45;9.9;;;2.4;;
58306;SDS011;44116;50.884;4.768;2023-08-20T21:56:48;10.1;;;2.6;;
58306;SDS011;44116;50.884;4.768;2023-08-20T21:58:45;7.4;;;2.3;;
58306;SDS011;44116;50.884;4.768;2023-08-20T22:00:45;10.2;;;2.8;;
58306;SDS011;44116;50.884;4.768;2023-08-20T22:02:46;7.0;;;2.3;;
58306;SDS011;44116;50.884;4.768;2023-08-20T22:04:45;9.4;;;2.6;;
58306;SDS011;44116;50.884;4.768;2023-08-20T22:06:45;10.4;;;2.5;;
58306;SDS011;44116;50.884;4.768;2023-08-20T22:08:45;6.8;;;2.4;;
58306;SDS011;44116;50.884;4.768;2023-08-20T22:10:45;9.6;;;2.8;;
58306;SDS011;44116;50.884;4.768;2023-08-20T22:12:46;6.6;;;2.4;;
58306;SDS011;44116;50.884;4.768;2023-08-20T22:14:45;7.6;;;2.2;;
58306;SDS011;44116;50.884;4.768;2023-08-20T22:16:45;8.3;;;2.6;;
58306;SDS011;44116;50.884;4.768;2023-08-20T22:18:45;8.1;;;2.2;;
58306;SDS011;44116;50.884;4.768;2023-08-20T22:20:45;6.6;;;2.4;;
58306;SDS011;44116;50.884;4.768;2023-08-20T22:22:45;10.9;;;2.7;;
58306;SDS011;44116;50.884;4.768;2023-08-20T22:24:45;9.5;;;2.5;;
58306;SDS011;44116;50.884;4.768;2023-08-20T22:26:45;11.2;;;2.7;;
58306;SDS011;44116;50.884;4.768;2023-08-20T22:28:45;8.0;;;2.3;;
58306;SDS011;44116;50.884;4.768;2023-08-20T22:30:45;10.2;;;2.7;;
58306;SDS011;44116;50.884;4.768;2023-08-20T22:32:45;8.3;;;2.3;;
58306;SDS011;44116;50.884;4.768;2023-08-20T22:34:48;8.6;;;2.4;;
58306;SDS011;44116;50.884;4.768;2023-08-20T22:36:45;9.1;;;2.6;;
58306;SDS011;44116;50.884;4.768;2023-08-20T22:38:45;9.8;;;2.7;;
58306;SDS011;44116;50.884;4.768;2023-08-20T22:40:45;7.4;;;2.4;;
58306;SDS011;44116;50.884;4.768;2023-08-20T22:42:45;10.7;;;2.8;;
58306;SDS011;44116;50.884;4.768;2023-08-20T22:44:45;10.4;;;2.6;;
58306;SDS011;44116;50.884;4.768;2023-08-20T22:48:45;8.3;;;2.4;;
58306;SDS011;44116;50.884;4.768;2023-08-20T22:50:45;7.0;;;2.5;;
58306;SDS011;44116;50.884;4.768;2023-08-20T22:52:47;9.1;;;2.6;;
58306;SDS011;44116;50.884;4.768;2023-08-20T22:54:45;8.3;;;2.4;;
58306;SDS011;44116;50.884;4.768;2023-08-20T22:56:45;12.0;;;2.9;;
58306;SDS011;44116;50.884;4.768;2023-08-20T22:58:45;9.4;;;2.6;;
58306;SDS011;44116;50.884;4.768;2023-08-20T23:02:45;9.1;;;2.5;;
58306;SDS011;44116;50.884;4.768;2023-08-20T23:06:45;8.0;;;2.2;;
58306;SDS011;44116;50.884;4.768;2023-08-20T23:08:45;8.1;;;2.4;;
58306;SDS011;44116;50.884;4.768;2023-08-20T23:10:45;7.2;;;2.6;;
58306;SDS011;44116;50.884;4.768;2023-08-20T23:12:45;8.3;;;2.3;;
58306;SDS011;44116;50.884;4.768;2023-08-20T23:14:46;11.8;;;3.1;;
58306;SDS011;44116;50.884;4.768;2023-08-20T23:16:45;7.7;;;2.6;;
58306;SDS011;44116;50.884;4.768;2023-08-20T23:20:52;10.2;;;2.7;;
58306;SDS011;44116;50.884;4.768;2023-08-20T23:22:46;8.4;;;2.5;;
58306;SDS011;44116;50.884;4.768;2023-08-20T23:24:45;8.7;;;2.3;;
58306;SDS011;44116;50.884;4.768;2023-08-20T23:26:45;9.4;;;2.8;;
58306;SDS011;44116;50.884;4.768;2023-08-20T23:28:45;7.4;;;2.6;;
58306;SDS011;44116;50.884;4.768;2023-08-20T23:30:45;7.7;;;2.9;;
58306;SDS011;44116;50.884;4.768;2023-08-20T23:34:45;9.8;;;2.8;;
58306;SDS011;44116;50.884;4.768;2023-08-20T23:36:45;9.0;;;2.4;;
58306;SDS011;44116;50.884;4.768;2023-08-20T23:38:45;8.6;;;2.6;;
58306;SDS011;44116;50.884;4.768;2023-08-20T23:42:45;6.6;;;2.4;;
58306;SDS011;44116;50.884;4.768;2023-08-20T23:44:45;6.6;;;2.3;;
58306;SDS011;44116;50.884;4.768;2023-08-20T23:46:45;8.5;;;2.6;;
58306;SDS011;44116;50.884;4.768;2023-08-20T23:52:45;12.4;;;2.8;;
58306;SDS011;44116;50.884;4.768;2023-08-20T23:56:45;10.1;;;2.4;;
58306;SDS011;44116;50.884;4.768;2023-08-20T23:58:45;8.9;;;2.6;;
